createdAt,value
2022-12-31T00:01:33.734Z,155.00
2022-12-31T00:04:05.926Z,142.60
2022-12-31T00:06:38.120Z,141.80
2022-12-31T00:09:11.526Z,150.50
2022-12-31T00:11:43.107Z,157.60
2022-12-31T00:14:14.699Z,164.50
2022-12-31T00:16:46.479Z,178.50
2022-12-31T00:19:18.088Z,164.90
2022-12-31T00:21:49.818Z,165.20
2022-12-31T00:24:21.399Z,165.30
2022-12-31T00:26:52.984Z,161.20
2022-12-31T00:29:24.730Z,152.90
2022-12-31T00:31:56.572Z,153.00
2022-12-31T00:34:28.293Z,153.90
2022-12-31T00:36:59.927Z,153.50
2022-12-31T00:39:31.746Z,156.00
2022-12-31T00:42:03.511Z,150.40
2022-12-31T00:44:35.108Z,150.40
2022-12-31T00:47:06.993Z,145.50
2022-12-31T00:49:38.862Z,148.00
2022-12-31T00:52:13.712Z,142.60
2022-12-31T00:54:45.283Z,134.40
2022-12-31T00:57:17.206Z,138.20
2022-12-31T00:59:48.843Z,141.70
2022-12-31T01:02:20.578Z,129.00
2022-12-31T01:04:53.026Z,145.40
2022-12-31T01:07:24.615Z,133.40
2022-12-31T01:09:56.171Z,136.50
2022-12-31T01:12:28.302Z,134.00
2022-12-31T01:14:59.981Z,137.20
2022-12-31T01:17:31.601Z,141.90
2022-12-31T01:20:03.237Z,147.50
2022-12-31T01:22:34.942Z,139.50
2022-12-31T01:25:08.119Z,139.60
2022-12-31T01:27:39.705Z,142.90
2022-12-31T01:30:13.455Z,141.50
2022-12-31T01:32:45.036Z,145.60
2022-12-31T01:35:16.959Z,145.20
2022-12-31T01:37:48.719Z,135.70
2022-12-31T01:40:20.681Z,130.00
2022-12-31T01:42:59.752Z,126.40
2022-12-31T01:45:31.714Z,144.30
2022-12-31T01:48:03.696Z,140.10
2022-12-31T01:50:38.936Z,147.80
2022-12-31T01:53:12.053Z,142.80
2022-12-31T01:55:49.509Z,149.00
2022-12-31T01:58:24.459Z,134.10
2022-12-31T02:00:58.751Z,118.90
2022-12-31T02:03:31.936Z,124.60
2022-12-31T02:06:10.046Z,122.80
2022-12-31T02:08:42.588Z,118.30
2022-12-31T02:11:27.619Z,124.20
2022-12-31T02:14:02.952Z,132.80
2022-12-31T02:16:41.433Z,145.70
2022-12-31T02:19:43.899Z,142.80
2022-12-31T02:22:23.784Z,131.70
2022-12-31T02:25:19.336Z,145.10
2022-12-31T02:28:04.157Z,137.10
2022-12-31T02:30:37.021Z,132.50
2022-12-31T02:33:15.057Z,133.70
2022-12-31T02:35:52.624Z,142.30
2022-12-31T02:38:30.015Z,143.30
2022-12-31T02:41:02.938Z,129.50
2022-12-31T02:43:34.473Z,117.50
2022-12-31T02:46:15.166Z,123.60
2022-12-31T02:48:53.677Z,122.30
2022-12-31T02:51:40.291Z,114.20
2022-12-31T02:54:33.189Z,122.10
2022-12-31T02:57:12.320Z,108.40
2022-12-31T03:00:09.423Z,103.50
2022-12-31T03:02:43.973Z,106.70
2022-12-31T03:05:18.374Z,100.30
2022-12-31T03:07:50.442Z,113.60
2022-12-31T03:10:22.917Z,106.00
2022-12-31T03:12:54.665Z,105.70
2022-12-31T03:15:28.594Z,101.00
2022-12-31T03:18:05.204Z,101.40
2022-12-31T03:20:57.153Z,96.60
2022-12-31T03:23:31.559Z,88.90
2022-12-31T03:26:04.676Z,92.90
2022-12-31T03:28:36.587Z,90.60
2022-12-31T03:31:09.086Z,93.80
2022-12-31T03:33:42.661Z,80.90
2022-12-31T03:36:16.720Z,65.10
2022-12-31T03:38:52.548Z,78.80
2022-12-31T03:41:24.664Z,66.50
2022-12-31T03:43:56.243Z,70.60
2022-12-31T03:46:27.968Z,70.90
2022-12-31T03:48:59.762Z,66.10
2022-12-31T03:51:31.358Z,61.20
2022-12-31T03:54:02.991Z,55.40
2022-12-31T03:56:35.646Z,43.50
2022-12-31T03:59:07.364Z,48.40
2022-12-31T04:01:39.328Z,47.60
2022-12-31T04:04:11.270Z,49.50
2022-12-31T04:06:42.921Z,35.30
2022-12-31T04:09:14.559Z,36.70
2022-12-31T04:11:46.223Z,35.60
2022-12-31T04:14:18.128Z,41.90
2022-12-31T04:16:49.810Z,36.00
2022-12-31T04:19:21.870Z,35.60
2022-12-31T04:21:53.916Z,33.30
2022-12-31T04:24:26.035Z,34.10
2022-12-31T04:27:02.117Z,23.70
2022-12-31T04:29:37.544Z,30.80
2022-12-31T04:32:10.313Z,28.60
2022-12-31T04:34:42.098Z,27.90
2022-12-31T04:37:13.662Z,25.90
2022-12-31T04:39:45.279Z,23.40
2022-12-31T04:42:16.873Z,24.50
2022-12-31T04:44:48.474Z,19.10
2022-12-31T04:47:23.677Z,21.40
2022-12-31T04:49:55.726Z,18.40
2022-12-31T04:52:27.410Z,19.50
2022-12-31T04:54:59.134Z,21.30
2022-12-31T04:57:30.760Z,22.30
2022-12-31T05:00:02.368Z,22.20
2022-12-31T05:02:34.206Z,21.20
2022-12-31T05:05:07.031Z,23.10
2022-12-31T05:07:38.772Z,24.30
2022-12-31T05:10:11.188Z,22.30
2022-12-31T05:12:43.007Z,25.50
2022-12-31T05:15:14.827Z,23.60
2022-12-31T05:17:46.386Z,25.30
2022-12-31T05:20:18.041Z,23.30
2022-12-31T05:22:49.796Z,23.90
2022-12-31T05:25:21.569Z,18.60
2022-12-31T05:27:53.489Z,19.50
2022-12-31T05:30:26.502Z,20.90
2022-12-31T05:32:58.313Z,17.50
2022-12-31T05:35:30.004Z,15.20
2022-12-31T05:38:02.095Z,15.10
2022-12-31T05:40:34.359Z,15.30
2022-12-31T05:43:06.009Z,14.40
2022-12-31T05:45:37.629Z,16.80
2022-12-31T05:48:09.828Z,16.00
2022-12-31T05:50:41.441Z,15.30
2022-12-31T05:53:13.360Z,16.10
2022-12-31T05:55:45.715Z,16.00
2022-12-31T05:58:18.187Z,20.10
2022-12-31T06:00:49.786Z,18.80
2022-12-31T06:03:21.695Z,17.90
2022-12-31T06:05:53.604Z,17.70
2022-12-31T06:08:25.386Z,18.70
2022-12-31T06:10:56.954Z,16.70
2022-12-31T06:13:28.768Z,20.20
2022-12-31T06:16:05.620Z,17.00
2022-12-31T06:18:37.486Z,15.80
2022-12-31T06:21:09.545Z,15.50
2022-12-31T06:23:42.789Z,11.00
2022-12-31T06:26:14.732Z,15.60
2022-12-31T06:28:46.806Z,15.60
2022-12-31T06:31:18.557Z,14.50
2022-12-31T06:33:50.154Z,11.60
2022-12-31T06:36:22.848Z,12.80
2022-12-31T06:38:55.216Z,14.50
2022-12-31T06:41:26.849Z,12.40
2022-12-31T06:43:58.439Z,11.70
2022-12-31T06:46:30.278Z,12.20
2022-12-31T06:49:01.971Z,8.00
2022-12-31T06:51:33.621Z,10.50
2022-12-31T06:54:05.440Z,9.50
2022-12-31T06:56:38.350Z,12.60
2022-12-31T06:59:23.915Z,11.40
2022-12-31T07:02:08.708Z,12.90
2022-12-31T07:05:04.544Z,10.90
2022-12-31T07:07:45.626Z,12.10
2022-12-31T07:10:30.047Z,14.20
2022-12-31T07:13:23.598Z,15.20
2022-12-31T07:16:20.451Z,14.30
2022-12-31T07:18:59.109Z,13.50
2022-12-31T07:21:36.797Z,15.10
2022-12-31T07:24:12.075Z,14.90
2022-12-31T07:26:57.277Z,14.50
2022-12-31T07:29:39.978Z,13.40
2022-12-31T07:32:24.293Z,9.20
2022-12-31T07:35:03.602Z,9.90
2022-12-31T07:37:46.554Z,9.90
2022-12-31T07:40:25.346Z,10.80
2022-12-31T07:43:09.833Z,9.70
2022-12-31T07:45:47.912Z,9.10
2022-12-31T07:48:25.933Z,9.60
2022-12-31T07:50:59.467Z,8.30
2022-12-31T07:53:32.336Z,7.20
2022-12-31T07:56:05.928Z,9.90
2022-12-31T08:01:34.691Z,18.20
2022-12-31T08:04:16.986Z,10.60
2022-12-31T08:06:59.438Z,12.40
2022-12-31T08:09:43.678Z,11.10
2022-12-31T08:12:15.886Z,9.20
2022-12-31T08:14:49.329Z,11.60
2022-12-31T08:17:22.592Z,11.40
2022-12-31T08:19:55.274Z,10.10
2022-12-31T08:22:46.535Z,13.90
2022-12-31T08:25:27.114Z,11.20
2022-12-31T08:28:11.427Z,9.30
2022-12-31T08:30:59.235Z,11.70
2022-12-31T08:33:36.683Z,11.30
2022-12-31T08:36:21.457Z,9.20
2022-12-31T08:38:59.113Z,8.10
2022-12-31T08:41:42.261Z,7.90
2022-12-31T08:44:24.703Z,8.50
2022-12-31T08:47:04.762Z,6.80
2022-12-31T08:49:38.067Z,7.50
2022-12-31T08:52:17.022Z,6.10
2022-12-31T08:54:49.995Z,7.50
2022-12-31T08:57:31.157Z,8.60
2022-12-31T09:00:08.373Z,7.80
2022-12-31T09:03:11.731Z,9.00
2022-12-31T09:05:54.540Z,10.90
2022-12-31T09:08:36.067Z,9.70
2022-12-31T09:11:20.801Z,9.90
2022-12-31T09:14:09.188Z,8.00
2022-12-31T09:16:48.653Z,7.40
2022-12-31T09:19:20.360Z,7.50
2022-12-31T09:21:53.154Z,9.90
2022-12-31T09:24:25.739Z,6.80
2022-12-31T09:27:05.882Z,7.30
2022-12-31T09:29:53.761Z,9.10
2022-12-31T09:32:38.751Z,8.90
2022-12-31T09:35:20.675Z,7.70
2022-12-31T09:37:56.557Z,11.90
2022-12-31T09:40:51.841Z,9.60
2022-12-31T09:44:01.219Z,10.20
2022-12-31T09:47:02.214Z,11.20
2022-12-31T09:50:11.185Z,12.20
2022-12-31T09:52:59.671Z,10.10
2022-12-31T09:55:37.965Z,9.60
2022-12-31T09:58:25.723Z,7.20
2022-12-31T10:01:04.982Z,8.70
2022-12-31T10:03:53.116Z,7.70
2022-12-31T10:06:32.043Z,8.20
2022-12-31T10:09:19.882Z,9.70
2022-12-31T10:12:34.240Z,8.10
2022-12-31T10:15:36.959Z,7.30
2022-12-31T10:18:19.143Z,8.60
2022-12-31T10:21:12.073Z,8.50
2022-12-31T10:24:01.141Z,8.50
2022-12-31T10:26:45.351Z,6.30
2022-12-31T10:29:34.476Z,9.00
2022-12-31T10:32:23.739Z,8.00
2022-12-31T10:35:12.705Z,7.70
2022-12-31T10:37:51.182Z,8.50
2022-12-31T10:40:33.819Z,8.50
2022-12-31T10:43:53.007Z,6.60
2022-12-31T10:46:56.933Z,6.80
2022-12-31T10:50:05.044Z,4.70
2022-12-31T10:53:22.363Z,7.50
2022-12-31T10:56:21.690Z,6.20
2022-12-31T10:59:29.878Z,8.00
2022-12-31T11:02:20.211Z,7.10
2022-12-31T11:05:38.238Z,6.50
2022-12-31T11:08:33.306Z,5.90
2022-12-31T11:11:19.178Z,6.00
2022-12-31T11:14:21.755Z,6.80
2022-12-31T11:17:06.993Z,6.50
2022-12-31T11:19:48.021Z,6.20
2022-12-31T11:22:41.835Z,5.30
2022-12-31T11:25:41.228Z,4.60
2022-12-31T11:28:41.525Z,5.20
2022-12-31T11:31:29.441Z,5.40
2022-12-31T11:34:26.200Z,4.80
2022-12-31T11:37:17.712Z,5.70
2022-12-31T11:39:59.299Z,5.90
2022-12-31T11:42:42.699Z,6.00
2022-12-31T11:45:27.861Z,4.80
2022-12-31T11:48:30.171Z,6.20
2022-12-31T11:51:26.911Z,4.90
2022-12-31T11:54:30.152Z,5.40
2022-12-31T11:57:14.391Z,7.90
2022-12-31T11:59:46.271Z,8.00
2022-12-31T12:02:28.540Z,7.20
2022-12-31T12:05:10.689Z,5.30
2022-12-31T12:07:43.319Z,6.50
2022-12-31T12:10:33.542Z,6.80
2022-12-31T12:13:20.367Z,7.40
2022-12-31T12:15:55.390Z,6.50
2022-12-31T12:18:42.934Z,7.70
2022-12-31T12:21:17.896Z,6.80
2022-12-31T12:23:59.821Z,8.20
2022-12-31T12:26:37.176Z,5.30
2022-12-31T12:29:20.620Z,6.80
2022-12-31T12:31:59.688Z,8.50
2022-12-31T12:34:33.332Z,6.90
2022-12-31T12:37:08.894Z,5.20
2022-12-31T12:39:41.319Z,6.00
2022-12-31T12:42:16.355Z,8.70
2022-12-31T12:44:47.934Z,8.30
2022-12-31T12:47:21.121Z,6.50
2022-12-31T12:49:56.459Z,6.10
2022-12-31T12:52:46.854Z,7.00
2022-12-31T12:55:26.714Z,7.30
2022-12-31T12:58:08.146Z,6.00
2022-12-31T13:00:49.851Z,6.80
2022-12-31T13:03:36.975Z,6.00
2022-12-31T13:06:26.627Z,8.10
2022-12-31T13:09:08.476Z,6.30
2022-12-31T13:11:47.354Z,4.80
2022-12-31T13:14:31.977Z,6.60
2022-12-31T13:17:19.883Z,6.90
2022-12-31T13:19:56.699Z,7.00
2022-12-31T13:22:35.282Z,6.10
2022-12-31T13:25:21.891Z,6.50
2022-12-31T13:27:56.501Z,7.40
2022-12-31T13:30:33.426Z,8.00
2022-12-31T13:33:12.690Z,6.10
2022-12-31T13:35:47.871Z,6.30
2022-12-31T13:38:22.639Z,7.90
2022-12-31T13:41:02.978Z,7.10
2022-12-31T13:43:48.816Z,7.30
2022-12-31T13:46:29.420Z,7.30
2022-12-31T13:49:04.137Z,7.70
2022-12-31T13:51:45.488Z,8.30
2022-12-31T13:54:30.002Z,6.60
2022-12-31T13:57:06.616Z,7.40
2022-12-31T13:59:42.821Z,6.90
2022-12-31T14:02:33.691Z,7.80
2022-12-31T14:05:15.043Z,6.90
2022-12-31T14:07:53.468Z,5.30
2022-12-31T14:10:36.259Z,7.00
2022-12-31T14:13:20.740Z,4.40
2022-12-31T14:16:13.055Z,5.20
2022-12-31T14:18:51.554Z,6.90
2022-12-31T14:21:29.688Z,6.10
2022-12-31T14:24:07.905Z,6.20
2022-12-31T14:26:43.926Z,6.70
2022-12-31T14:29:30.582Z,7.20
2022-12-31T14:32:28.318Z,7.70
2022-12-31T14:35:14.749Z,6.40
2022-12-31T14:37:58.040Z,6.70
2022-12-31T14:40:37.823Z,7.90
2022-12-31T14:43:19.787Z,7.20
2022-12-31T14:46:04.903Z,8.30
2022-12-31T14:48:47.219Z,8.80
2022-12-31T14:51:19.189Z,45.40
2022-12-31T14:53:57.796Z,19.40
2022-12-31T14:56:34.216Z,10.50
2022-12-31T14:59:19.402Z,7.90
2022-12-31T15:01:51.014Z,9.30
2022-12-31T15:04:34.607Z,8.60
2022-12-31T15:07:19.001Z,13.30
2022-12-31T15:10:05.258Z,11.90
2022-12-31T15:12:55.769Z,8.10
2022-12-31T15:15:44.647Z,10.50
2022-12-31T15:18:36.542Z,8.30
2022-12-31T15:21:38.024Z,11.80
2022-12-31T15:24:22.699Z,9.20
2022-12-31T15:26:57.640Z,8.40
2022-12-31T15:29:33.165Z,8.30
2022-12-31T15:32:08.980Z,9.70
2022-12-31T15:34:40.670Z,9.60
2022-12-31T15:37:30.979Z,11.70
2022-12-31T15:40:21.036Z,12.10
2022-12-31T15:42:56.626Z,10.70
2022-12-31T15:45:33.743Z,9.60
2022-12-31T15:48:10.157Z,10.30
2022-12-31T15:50:43.673Z,10.10
2022-12-31T15:53:28.298Z,8.40
2022-12-31T15:56:03.119Z,10.50
2022-12-31T15:58:37.591Z,12.70
2022-12-31T16:01:15.948Z,10.60
2022-12-31T16:03:50.968Z,12.40
2022-12-31T16:06:22.739Z,11.30
2022-12-31T16:08:55.607Z,11.00
2022-12-31T16:11:30.403Z,13.30
2022-12-31T16:14:02.050Z,11.80
2022-12-31T16:16:36.084Z,9.20
2022-12-31T16:19:28.655Z,10.00
2022-12-31T16:22:02.168Z,6.90
2022-12-31T16:24:37.491Z,13.10
2022-12-31T16:27:18.216Z,9.70
2022-12-31T16:29:55.938Z,10.90
2022-12-31T16:32:27.866Z,10.00
2022-12-31T16:34:59.446Z,9.10
2022-12-31T16:37:31.113Z,8.20
2022-12-31T16:40:21.749Z,8.10
2022-12-31T16:42:53.558Z,7.40
2022-12-31T16:45:36.737Z,6.90
2022-12-31T16:48:18.649Z,7.00
2022-12-31T16:50:54.146Z,6.80
2022-12-31T16:53:29.818Z,4.40
2022-12-31T16:56:04.375Z,7.80
2022-12-31T16:58:38.660Z,8.10
2022-12-31T17:01:17.946Z,8.30
2022-12-31T17:03:53.073Z,9.10
2022-12-31T17:06:25.704Z,8.70
2022-12-31T17:09:13.916Z,8.10
2022-12-31T17:11:52.936Z,8.80
2022-12-31T17:14:26.623Z,11.90
2022-12-31T17:19:38.813Z,12.00
2022-12-31T17:22:16.525Z,10.00
2022-12-31T17:24:51.050Z,11.80
2022-12-31T17:27:22.837Z,8.50
2022-12-31T17:29:54.698Z,9.50
2022-12-31T17:32:37.197Z,9.70
2022-12-31T17:35:30.416Z,10.30
2022-12-31T17:38:33.068Z,9.20
2022-12-31T17:41:25.614Z,12.90
2022-12-31T17:43:58.361Z,13.50
2022-12-31T17:46:30.289Z,12.00
2022-12-31T17:49:03.708Z,12.40
2022-12-31T17:51:35.328Z,14.80
2022-12-31T17:54:13.308Z,14.60
2022-12-31T17:56:45.552Z,11.80
2022-12-31T17:59:19.277Z,12.80
2022-12-31T18:04:21.716Z,13.20
2022-12-31T18:06:53.327Z,13.90
2022-12-31T18:09:25.041Z,13.60
2022-12-31T18:12:01.368Z,11.90
2022-12-31T18:14:33.361Z,12.70
2022-12-31T18:17:06.998Z,9.50
2022-12-31T18:20:03.694Z,11.00
2022-12-31T18:22:30.920Z,10.10
2022-12-31T18:25:04.484Z,10.40
2022-12-31T18:27:36.614Z,10.60
2022-12-31T18:30:10.484Z,10.90
2022-12-31T18:32:44.046Z,10.00
2022-12-31T18:35:40.688Z,9.90
2022-12-31T18:38:14.877Z,8.30
2022-12-31T18:40:51.880Z,8.20
2022-12-31T18:43:25.111Z,8.60
2022-12-31T18:45:56.965Z,7.90
2022-12-31T18:48:28.821Z,7.40
2022-12-31T18:51:00.422Z,7.10
2022-12-31T18:53:32.034Z,10.20
2022-12-31T18:56:03.591Z,9.00
2022-12-31T18:58:35.466Z,7.80
2022-12-31T19:01:10.887Z,8.80
2022-12-31T19:03:42.600Z,9.00
2022-12-31T19:06:14.209Z,7.10
2022-12-31T19:08:45.798Z,8.90
2022-12-31T19:11:17.857Z,9.40
2022-12-31T19:13:51.106Z,9.00
2022-12-31T19:16:22.849Z,9.80
2022-12-31T19:18:54.484Z,8.90
2022-12-31T19:21:26.086Z,8.70
2022-12-31T19:23:57.663Z,9.60
2022-12-31T19:26:29.803Z,9.00
2022-12-31T19:29:01.386Z,7.60
2022-12-31T19:31:33.116Z,8.40
2022-12-31T19:34:04.857Z,8.60
2022-12-31T19:36:43.545Z,8.00
2022-12-31T19:39:18.984Z,7.80
2022-12-31T19:41:58.572Z,7.90
2022-12-31T19:44:30.953Z,7.70
2022-12-31T19:47:02.779Z,8.40
2022-12-31T19:49:34.716Z,7.50
2022-12-31T19:52:06.793Z,8.10
2022-12-31T19:54:38.389Z,8.60
2022-12-31T19:57:10.025Z,9.60
2022-12-31T19:59:41.756Z,7.40
2022-12-31T20:02:13.654Z,7.90
2022-12-31T20:04:46.257Z,7.50
2022-12-31T20:07:23.571Z,8.80
2022-12-31T20:09:58.622Z,7.20
2022-12-31T20:12:30.966Z,7.90
2022-12-31T20:15:02.616Z,8.60
2022-12-31T20:17:34.865Z,7.70
2022-12-31T20:20:08.139Z,8.00
2022-12-31T20:22:39.763Z,7.10
2022-12-31T20:25:12.133Z,7.30
2022-12-31T20:27:43.728Z,8.30
2022-12-31T20:30:16.696Z,9.30
2022-12-31T20:32:48.378Z,10.40
2022-12-31T20:35:20.234Z,10.60
2022-12-31T20:37:51.850Z,11.00
2022-12-31T20:40:23.504Z,9.40
2022-12-31T20:42:55.232Z,10.30
2022-12-31T20:45:26.879Z,9.50
2022-12-31T20:47:58.644Z,9.10
2022-12-31T20:50:30.328Z,8.30
2022-12-31T20:53:02.036Z,10.10
2022-12-31T20:55:38.003Z,9.50
2022-12-31T20:58:09.631Z,9.30
2022-12-31T21:00:41.316Z,10.10
2022-12-31T21:03:36.941Z,8.20
2022-12-31T21:06:04.799Z,9.70
2022-12-31T21:08:37.083Z,8.80
2022-12-31T21:11:29.735Z,8.20
2022-12-31T21:14:02.859Z,9.10
2022-12-31T21:16:34.494Z,8.90
2022-12-31T21:19:06.501Z,9.30
2022-12-31T21:21:38.795Z,10.10
2022-12-31T21:24:11.361Z,9.90
2022-12-31T21:26:42.924Z,10.40
2022-12-31T21:29:14.707Z,11.30
2022-12-31T21:31:46.353Z,12.30
2022-12-31T21:34:17.949Z,9.30
2022-12-31T21:36:49.600Z,11.10
2022-12-31T21:39:21.181Z,11.10
2022-12-31T21:41:53.048Z,10.60
2022-12-31T21:44:26.497Z,10.90
2022-12-31T21:47:42.545Z,11.90
2022-12-31T21:50:13.661Z,10.30
2022-12-31T21:52:45.250Z,13.20
2022-12-31T21:55:39.795Z,10.90
2022-12-31T21:58:28.101Z,11.60
2022-12-31T22:01:19.428Z,11.30
2022-12-31T22:03:51.356Z,17.50
2022-12-31T22:06:24.361Z,15.00
2022-12-31T22:08:57.154Z,14.70
2022-12-31T22:11:29.840Z,17.20
2022-12-31T22:14:01.482Z,16.10
2022-12-31T22:16:33.147Z,14.70
2022-12-31T22:19:04.826Z,12.30
2022-12-31T22:21:36.385Z,12.40
2022-12-31T22:24:09.436Z,11.30
2022-12-31T22:26:46.540Z,12.20
2022-12-31T22:29:19.715Z,14.30
2022-12-31T22:31:52.264Z,12.10
2022-12-31T22:34:26.628Z,13.80
2022-12-31T22:36:58.857Z,15.20
2022-12-31T22:39:43.369Z,14.20
2022-12-31T22:42:16.253Z,15.70
2022-12-31T22:44:48.049Z,16.20
2022-12-31T22:47:19.691Z,16.10
2022-12-31T22:49:51.381Z,18.00
2022-12-31T22:52:23.054Z,18.60
2022-12-31T22:54:54.837Z,17.90
2022-12-31T22:57:26.495Z,17.00
2022-12-31T22:59:58.279Z,18.60
2022-12-31T23:02:30.042Z,17.90
2022-12-31T23:05:15.490Z,16.80
2022-12-31T23:07:48.000Z,20.70
2022-12-31T23:10:37.530Z,20.10
2022-12-31T23:13:26.820Z,29.20
2022-12-31T23:16:16.178Z,30.10
2022-12-31T23:19:05.732Z,38.80
2022-12-31T23:21:55.623Z,46.80
2022-12-31T23:24:28.829Z,43.10
2022-12-31T23:27:00.511Z,44.90
2022-12-31T23:29:32.130Z,42.10
2022-12-31T23:32:03.839Z,43.90
2022-12-31T23:34:36.087Z,38.50
2022-12-31T23:37:07.896Z,42.10
2022-12-31T23:39:39.511Z,35.40
2022-12-31T23:42:11.417Z,28.20
2022-12-31T23:44:43.068Z,23.90
2022-12-31T23:47:14.795Z,20.70
2022-12-31T23:49:46.384Z,23.10
2022-12-31T23:52:17.950Z,19.80
2022-12-31T23:54:49.539Z,20.80
2022-12-31T23:57:22.713Z,15.80
2022-12-31T23:59:54.333Z,14.20
